createdAt,value
2023-01-13T00:00:52.484Z,4.60
2023-01-13T00:03:20.743Z,2.93
2023-01-13T00:05:48.267Z,4.63
2023-01-13T00:08:15.536Z,4.03
2023-01-13T00:10:42.974Z,3.00
2023-01-13T00:13:10.551Z,5.50
2023-01-13T00:15:37.620Z,5.60
2023-01-13T00:18:04.779Z,2.83
2023-01-13T00:20:31.859Z,4.07
2023-01-13T00:23:00.253Z,3.53
2023-01-13T00:25:27.327Z,4.67
2023-01-13T00:27:55.044Z,2.40
2023-01-13T00:30:22.507Z,7.37
2023-01-13T00:32:49.958Z,2.73
2023-01-13T00:35:17.508Z,4.20
2023-01-13T00:37:44.601Z,4.13
2023-01-13T00:40:12.422Z,4.17
2023-01-13T00:42:58.349Z,3.63
2023-01-13T00:45:25.791Z,4.10
2023-01-13T00:47:53.294Z,3.90
2023-01-13T00:50:20.789Z,4.30
2023-01-13T00:52:47.859Z,3.40
2023-01-13T00:55:15.346Z,3.17
2023-01-13T00:57:42.836Z,3.30
2023-01-13T01:00:11.086Z,5.53
2023-01-13T01:02:38.590Z,2.87
2023-01-13T01:05:06.357Z,5.00
2023-01-13T01:07:33.796Z,5.90
2023-01-13T01:10:00.908Z,3.57
2023-01-13T01:12:28.399Z,4.83
2023-01-13T01:14:55.847Z,4.27
2023-01-13T01:17:23.297Z,2.13
2023-01-13T01:19:50.453Z,4.50
2023-01-13T01:22:17.551Z,4.07
2023-01-13T01:24:44.673Z,6.83
2023-01-13T01:27:11.738Z,4.10
2023-01-13T01:29:38.813Z,7.53
2023-01-13T01:32:06.511Z,5.03
2023-01-13T01:34:34.012Z,4.07
2023-01-13T01:37:01.529Z,3.70
2023-01-13T01:39:28.667Z,5.43
2023-01-13T01:42:14.801Z,4.67
2023-01-13T01:44:54.547Z,3.63
2023-01-13T01:47:23.829Z,5.57
2023-01-13T01:49:51.542Z,4.30
2023-01-13T01:52:22.674Z,4.73
2023-01-13T01:55:19.525Z,5.50
2023-01-13T01:58:03.119Z,2.63
2023-01-13T02:00:32.504Z,3.47
2023-01-13T02:03:00.282Z,3.47
2023-01-13T02:05:28.025Z,3.28
2023-01-13T02:07:57.207Z,5.50
2023-01-13T02:10:27.851Z,4.07
2023-01-13T02:12:59.033Z,5.80
2023-01-13T02:15:58.729Z,7.33
2023-01-13T02:18:32.505Z,2.50
2023-01-13T02:21:26.180Z,4.10
2023-01-13T02:24:31.102Z,1.70
2023-01-13T02:27:44.179Z,5.57
2023-01-13T02:30:41.708Z,5.13
2023-01-13T02:33:25.206Z,4.70
2023-01-13T02:36:06.444Z,3.60
2023-01-13T02:38:35.951Z,3.33
2023-01-13T02:41:51.001Z,4.10
2023-01-13T02:44:25.262Z,4.93
2023-01-13T02:46:55.131Z,4.07
2023-01-13T02:49:29.295Z,2.40
2023-01-13T02:52:00.135Z,4.23
2023-01-13T02:54:29.636Z,4.60
2023-01-13T02:56:58.345Z,3.47
2023-01-13T02:59:27.933Z,3.17
2023-01-13T03:01:57.623Z,5.57
2023-01-13T03:05:03.477Z,5.60
2023-01-13T03:07:49.345Z,3.93
2023-01-13T03:10:48.881Z,3.07
2023-01-13T03:13:31.746Z,3.57
2023-01-13T03:16:36.062Z,3.73
2023-01-13T03:19:40.453Z,3.77
2023-01-13T03:22:22.204Z,2.30
2023-01-13T03:25:19.628Z,3.33
2023-01-13T03:27:59.780Z,4.70
2023-01-13T03:30:43.234Z,2.57
2023-01-13T03:33:13.676Z,4.83
2023-01-13T03:35:42.776Z,4.70
2023-01-13T03:38:19.214Z,5.83
2023-01-13T03:40:58.207Z,4.90
2023-01-13T03:43:47.496Z,5.10
2023-01-13T03:46:25.503Z,2.53
2023-01-13T03:48:55.524Z,4.63
2023-01-13T03:51:23.983Z,4.77
2023-01-13T03:53:54.342Z,2.33
2023-01-13T03:56:28.748Z,4.30
2023-01-13T03:58:58.725Z,5.00
2023-01-13T04:01:28.602Z,4.80
2023-01-13T04:04:01.073Z,4.33
2023-01-13T04:06:36.278Z,2.30
2023-01-13T04:09:08.196Z,6.03
2023-01-13T04:11:40.725Z,5.23
2023-01-13T04:14:09.298Z,5.23
2023-01-13T04:16:37.823Z,6.03
2023-01-13T04:19:06.612Z,2.92
2023-01-13T04:21:34.971Z,4.30
2023-01-13T04:24:02.415Z,7.83
2023-01-13T04:26:29.828Z,4.10
2023-01-13T04:28:57.295Z,3.70
2023-01-13T04:31:24.750Z,9.93
2023-01-13T04:33:52.177Z,2.80
2023-01-13T04:36:19.778Z,5.53
2023-01-13T04:38:46.886Z,2.77
2023-01-13T04:41:14.495Z,3.87
2023-01-13T04:43:41.957Z,2.33
2023-01-13T04:46:09.419Z,2.17
2023-01-13T04:48:36.858Z,2.40
2023-01-13T04:51:04.359Z,2.60
2023-01-13T04:53:31.462Z,5.90
2023-01-13T04:55:58.508Z,4.27
2023-01-13T04:58:25.620Z,7.27
2023-01-13T05:00:53.144Z,6.37
2023-01-13T05:03:20.639Z,5.90
2023-01-13T05:05:51.678Z,3.70
2023-01-13T05:08:19.360Z,5.13
2023-01-13T05:10:46.813Z,4.57
2023-01-13T05:13:33.274Z,4.93
2023-01-13T05:16:20.254Z,5.10
2023-01-13T05:18:47.807Z,2.33
2023-01-13T05:21:33.890Z,5.27
2023-01-13T05:24:19.807Z,3.93
2023-01-13T05:26:47.403Z,5.77
2023-01-13T05:29:14.830Z,3.77
2023-01-13T05:31:42.317Z,2.93
2023-01-13T05:34:09.744Z,2.40
2023-01-13T05:36:37.189Z,2.43
2023-01-13T05:39:05.449Z,4.93
2023-01-13T05:41:51.717Z,3.43
2023-01-13T05:44:19.179Z,4.50
2023-01-13T05:46:46.654Z,3.07
2023-01-13T05:49:14.124Z,4.00
2023-01-13T05:51:41.570Z,3.40
2023-01-13T05:54:08.656Z,2.20
2023-01-13T05:56:35.724Z,2.07
2023-01-13T05:59:02.809Z,5.63
2023-01-13T06:01:29.929Z,6.13
2023-01-13T06:03:57.055Z,4.77
2023-01-13T06:06:24.162Z,4.87
2023-01-13T06:08:51.251Z,5.30
2023-01-13T06:11:18.317Z,5.63
2023-01-13T06:13:45.431Z,8.67
2023-01-13T06:16:12.547Z,3.43
2023-01-13T06:18:39.727Z,5.67
2023-01-13T06:21:06.846Z,6.47
2023-01-13T06:23:35.378Z,4.43
2023-01-13T06:26:23.200Z,5.17
2023-01-13T06:28:50.545Z,5.97
2023-01-13T06:31:17.738Z,6.20
2023-01-13T06:33:58.183Z,6.10
2023-01-13T06:36:32.479Z,2.17
2023-01-13T06:39:02.287Z,4.40
2023-01-13T06:41:51.301Z,2.87
2023-01-13T06:44:19.601Z,4.00
2023-01-13T06:46:47.620Z,4.90
2023-01-13T06:49:14.795Z,6.37
2023-01-13T06:51:41.856Z,4.87
2023-01-13T06:54:09.002Z,4.07
2023-01-13T06:56:36.268Z,3.23
2023-01-13T06:59:03.799Z,0.83
2023-01-13T07:01:30.982Z,2.50
2023-01-13T07:03:58.335Z,3.27
2023-01-13T07:06:25.750Z,5.83
2023-01-13T07:08:52.859Z,2.53
2023-01-13T07:11:19.905Z,3.60
2023-01-13T07:14:05.620Z,4.47
2023-01-13T07:16:32.850Z,5.00
2023-01-13T07:18:59.948Z,1.93
2023-01-13T07:21:27.303Z,5.70
2023-01-13T07:23:54.335Z,2.57
2023-01-13T07:26:21.670Z,3.57
2023-01-13T07:28:48.872Z,4.57
2023-01-13T07:31:18.703Z,4.37
2023-01-13T07:33:46.131Z,8.50
2023-01-13T07:36:14.069Z,3.30
2023-01-13T07:38:44.705Z,5.10
2023-01-13T07:41:34.552Z,2.10
2023-01-13T07:44:05.112Z,3.33
2023-01-13T07:46:33.231Z,3.83
2023-01-13T07:49:00.677Z,3.93
2023-01-13T07:51:27.835Z,4.03
2023-01-13T07:53:54.997Z,3.63
2023-01-13T07:56:22.436Z,7.27
2023-01-13T07:58:51.183Z,6.63
2023-01-13T08:01:19.242Z,4.97
2023-01-13T08:03:46.651Z,2.97
2023-01-13T08:06:14.329Z,3.50
2023-01-13T08:08:41.560Z,2.93
2023-01-13T08:11:09.091Z,2.33
2023-01-13T08:13:36.430Z,2.07
2023-01-13T08:16:09.540Z,2.43
2023-01-13T08:18:38.271Z,3.20
2023-01-13T08:21:16.390Z,4.47
2023-01-13T08:23:45.420Z,3.37
2023-01-13T08:26:16.360Z,1.10
2023-01-13T08:28:43.941Z,8.17
2023-01-13T08:31:14.343Z,3.97
2023-01-13T08:33:41.875Z,2.57
2023-01-13T08:36:11.207Z,2.33
2023-01-13T08:38:38.720Z,3.33
2023-01-13T08:41:11.709Z,0.60
2023-01-13T08:43:39.320Z,4.97
2023-01-13T08:46:06.810Z,1.53
2023-01-13T08:48:34.314Z,1.77
2023-01-13T08:51:09.168Z,1.57
2023-01-13T08:53:36.264Z,3.13
2023-01-13T08:56:08.063Z,7.70
2023-01-13T08:58:35.210Z,1.40
2023-01-13T09:01:05.973Z,1.80
2023-01-13T09:03:33.416Z,2.57
2023-01-13T09:06:00.619Z,4.10
2023-01-13T09:08:27.885Z,2.57
2023-01-13T09:10:55.004Z,1.10
2023-01-13T09:13:22.153Z,0.60
2023-01-13T09:15:49.258Z,3.90
2023-01-13T09:18:16.360Z,1.57
2023-01-13T09:20:44.668Z,1.27
2023-01-13T09:23:11.849Z,3.53
2023-01-13T09:25:39.661Z,0.87
2023-01-13T09:28:08.331Z,1.70
2023-01-13T09:30:36.979Z,0.63
2023-01-13T09:33:22.895Z,0.97
2023-01-13T09:35:49.991Z,0.60
2023-01-13T09:38:17.048Z,3.03
2023-01-13T09:40:44.568Z,0.50
2023-01-13T09:43:52.719Z,0.33
2023-01-13T09:46:49.325Z,0.40
2023-01-13T09:49:25.116Z,0.77
2023-01-13T09:52:02.749Z,1.30
2023-01-13T09:54:56.166Z,1.47
2023-01-13T09:57:27.403Z,1.23
2023-01-13T09:59:54.821Z,0.50
2023-01-13T10:02:52.753Z,0.43
2023-01-13T10:05:35.869Z,2.30
2023-01-13T10:08:06.772Z,0.57
2023-01-13T10:10:45.509Z,1.23
2023-01-13T10:13:21.455Z,0.40
2023-01-13T10:16:09.195Z,1.50
2023-01-13T10:19:05.119Z,0.30
2023-01-13T10:21:51.265Z,2.17
2023-01-13T10:24:54.202Z,1.00
2023-01-13T10:27:33.146Z,1.93
2023-01-13T10:30:10.481Z,0.97
2023-01-13T10:32:37.954Z,0.40
2023-01-13T10:35:05.870Z,1.80
2023-01-13T10:37:33.444Z,0.37
2023-01-13T10:40:04.010Z,0.63
2023-01-13T10:42:31.492Z,0.23
2023-01-13T10:44:59.915Z,0.80
2023-01-13T10:47:28.997Z,1.60
2023-01-13T10:50:19.826Z,1.57
2023-01-13T10:53:03.616Z,0.20
2023-01-13T10:55:33.456Z,0.13
2023-01-13T10:58:14.119Z,0.20
2023-01-13T11:00:41.979Z,0.67
2023-01-13T11:03:20.643Z,0.33
2023-01-13T11:06:00.841Z,0.50
2023-01-13T11:08:43.070Z,1.40
2023-01-13T11:11:43.136Z,2.30
2023-01-13T11:14:39.485Z,0.93
2023-01-13T11:17:31.825Z,0.30
2023-01-13T11:20:06.203Z,1.97
2023-01-13T11:22:38.486Z,0.77
2023-01-13T11:25:32.929Z,0.50
2023-01-13T11:28:16.513Z,4.47
2023-01-13T11:30:53.163Z,0.27
2023-01-13T11:33:40.531Z,0.37
2023-01-13T11:36:25.214Z,1.60
2023-01-13T11:39:11.645Z,0.20
2023-01-13T11:42:21.706Z,0.83
2023-01-13T11:45:13.711Z,0.57
2023-01-13T11:47:40.829Z,0.20
2023-01-13T11:50:38.330Z,0.50
2023-01-13T11:53:24.170Z,0.30
2023-01-13T11:56:48.972Z,0.60
2023-01-13T12:00:00.478Z,0.20
2023-01-13T12:02:58.159Z,0.20
2023-01-13T12:05:42.769Z,0.20
2023-01-13T12:08:30.365Z,0.70
2023-01-13T12:11:57.387Z,0.20
2023-01-13T12:15:08.006Z,2.10
2023-01-13T12:18:11.982Z,0.30
2023-01-13T12:21:18.048Z,0.37
2023-01-13T12:24:27.724Z,0.27
2023-01-13T12:27:06.762Z,0.93
2023-01-13T12:29:36.879Z,0.63
2023-01-13T12:32:17.286Z,1.57
2023-01-13T12:38:17.152Z,0.77
2023-01-13T12:41:06.158Z,5.43
2023-01-13T12:43:53.124Z,1.00
2023-01-13T12:46:53.345Z,6.67
2023-01-13T12:49:32.110Z,4.57
2023-01-13T12:52:13.811Z,0.90
2023-01-13T12:55:03.161Z,2.07
2023-01-13T12:57:33.707Z,1.13
2023-01-13T13:00:19.513Z,1.37
2023-01-13T13:03:23.582Z,0.87
2023-01-13T13:06:16.649Z,0.50
2023-01-13T13:09:24.440Z,2.30
2023-01-13T13:12:23.815Z,1.13
2023-01-13T13:15:03.407Z,0.80
2023-01-13T13:17:39.819Z,3.00
2023-01-13T13:20:45.490Z,1.90
2023-01-13T13:24:08.651Z,1.13
2023-01-13T13:26:42.399Z,4.13
2023-01-13T13:29:37.411Z,2.40
2023-01-13T13:33:06.353Z,1.23
2023-01-13T13:36:09.752Z,1.50
2023-01-13T13:39:34.266Z,1.20
2023-01-13T13:42:55.839Z,4.33
2023-01-13T13:45:45.088Z,0.97
2023-01-13T13:48:27.217Z,1.10
2023-01-13T13:51:00.440Z,2.50
2023-01-13T13:53:32.131Z,2.07
2023-01-13T13:56:02.174Z,1.67
2023-01-13T13:58:34.067Z,1.57
2023-01-13T14:01:01.694Z,2.43
2023-01-13T14:03:34.504Z,3.77
2023-01-13T14:06:04.601Z,1.23
2023-01-13T14:08:35.042Z,2.50
2023-01-13T14:11:02.715Z,2.30
2023-01-13T14:13:31.769Z,2.03
2023-01-13T14:16:07.024Z,2.33
2023-01-13T14:18:48.201Z,2.07
2023-01-13T14:21:31.202Z,4.97
2023-01-13T14:24:01.976Z,6.73
2023-01-13T14:26:32.555Z,2.30
2023-01-13T14:29:01.963Z,2.93
2023-01-13T14:31:30.619Z,2.00
2023-01-13T14:34:00.013Z,2.03
2023-01-13T14:36:38.264Z,3.07
2023-01-13T14:39:33.465Z,1.50
2023-01-13T14:42:00.887Z,2.63
2023-01-13T14:44:35.037Z,5.17
2023-01-13T14:47:26.710Z,3.03
2023-01-13T14:50:19.360Z,0.90
2023-01-13T14:52:54.619Z,3.97
2023-01-13T14:55:33.963Z,1.90
2023-01-13T14:58:40.204Z,2.87
2023-01-13T15:01:29.025Z,5.27
2023-01-13T15:04:17.352Z,2.30
2023-01-13T15:06:49.796Z,1.43
2023-01-13T15:09:24.943Z,1.00
2023-01-13T15:11:54.382Z,4.47
2023-01-13T15:14:31.309Z,4.87
2023-01-13T15:16:58.598Z,1.87
2023-01-13T15:19:25.664Z,2.80
2023-01-13T15:21:52.790Z,4.83
2023-01-13T15:24:19.901Z,0.63
2023-01-13T15:26:47.098Z,3.70
2023-01-13T15:29:17.681Z,2.27
2023-01-13T15:31:44.791Z,0.70
2023-01-13T15:34:11.815Z,0.63
2023-01-13T15:36:40.340Z,0.90
2023-01-13T15:39:11.379Z,0.70
2023-01-13T15:41:57.230Z,0.30
2023-01-13T15:44:42.840Z,1.53
2023-01-13T15:47:10.597Z,2.20
2023-01-13T15:49:44.313Z,2.70
2023-01-13T15:52:31.654Z,2.63
2023-01-13T15:54:58.784Z,1.43
2023-01-13T15:57:32.592Z,3.07
2023-01-13T16:00:02.769Z,2.53
2023-01-13T16:02:33.663Z,2.93
2023-01-13T16:05:00.893Z,3.60
2023-01-13T16:07:28.461Z,2.33
2023-01-13T16:09:55.635Z,2.00
2023-01-13T16:12:22.883Z,1.30
2023-01-13T16:14:50.085Z,0.60
2023-01-13T16:17:22.769Z,2.50
2023-01-13T16:19:50.181Z,2.47
2023-01-13T16:22:18.192Z,2.27
2023-01-13T16:24:45.439Z,3.30
2023-01-13T16:27:17.819Z,2.60
2023-01-13T16:29:45.524Z,1.37
2023-01-13T16:32:12.675Z,2.83
2023-01-13T16:34:40.742Z,4.93
2023-01-13T16:37:25.852Z,1.87
2023-01-13T16:39:54.347Z,1.40
2023-01-13T16:42:21.743Z,2.20
2023-01-13T16:44:49.774Z,2.47
2023-01-13T16:47:18.170Z,2.90
2023-01-13T16:49:46.257Z,1.97
2023-01-13T16:52:13.595Z,2.50
2023-01-13T16:54:40.788Z,1.00
2023-01-13T16:57:11.004Z,2.47
2023-01-13T16:59:38.089Z,2.63
2023-01-13T17:02:11.299Z,2.57
2023-01-13T17:04:38.611Z,0.97
2023-01-13T17:07:08.264Z,2.07
2023-01-13T17:09:35.698Z,1.83
2023-01-13T17:12:02.778Z,3.10
2023-01-13T17:14:29.922Z,2.67
2023-01-13T17:16:59.717Z,1.80
2023-01-13T17:19:27.302Z,1.87
2023-01-13T17:21:54.527Z,2.80
2023-01-13T17:24:21.727Z,5.07
2023-01-13T17:26:50.750Z,2.20
2023-01-13T17:29:23.732Z,2.67
2023-01-13T17:31:51.572Z,1.87
2023-01-13T17:34:19.731Z,1.03
2023-01-13T17:36:47.017Z,3.40
2023-01-13T17:39:19.274Z,2.70
2023-01-13T17:41:46.415Z,1.43
2023-01-13T17:44:18.080Z,2.63
2023-01-13T17:46:45.814Z,3.00
2023-01-13T17:49:14.544Z,1.73
2023-01-13T17:51:42.164Z,1.27
2023-01-13T17:54:12.430Z,2.47
2023-01-13T17:56:41.056Z,3.40
2023-01-13T17:59:10.597Z,1.80
2023-01-13T18:01:39.014Z,4.87
2023-01-13T18:04:07.000Z,1.93
2023-01-13T18:06:34.293Z,1.07
2023-01-13T18:09:01.653Z,1.90
2023-01-13T18:11:28.965Z,2.00
2023-01-13T18:13:58.864Z,5.67
2023-01-13T18:16:30.388Z,3.03
2023-01-13T18:19:18.788Z,1.67
2023-01-13T18:22:05.429Z,6.17
2023-01-13T18:24:51.209Z,6.80
2023-01-13T18:27:22.936Z,4.33
2023-01-13T18:29:52.711Z,4.13
2023-01-13T18:32:21.433Z,4.07
2023-01-13T18:34:49.073Z,4.47
2023-01-13T18:37:18.305Z,2.47
2023-01-13T18:39:45.487Z,3.93
2023-01-13T18:42:30.965Z,3.93
2023-01-13T18:44:58.332Z,4.50
2023-01-13T18:47:26.355Z,6.13
2023-01-13T18:49:53.460Z,4.03
2023-01-13T18:52:20.856Z,6.93
2023-01-13T18:54:47.940Z,5.67
2023-01-13T18:57:16.177Z,5.20
2023-01-13T18:59:43.261Z,7.03
2023-01-13T19:02:19.724Z,5.27
2023-01-13T19:04:47.637Z,2.10
2023-01-13T19:07:22.454Z,4.40
2023-01-13T19:09:50.298Z,7.13
2023-01-13T19:12:26.263Z,6.33
2023-01-13T19:14:56.946Z,3.00
2023-01-13T19:17:25.875Z,3.20
2023-01-13T19:19:55.213Z,5.27
2023-01-13T19:22:27.263Z,4.47
2023-01-13T19:24:54.590Z,5.63
2023-01-13T19:27:22.568Z,8.53
2023-01-13T19:29:52.719Z,6.23
2023-01-13T19:32:23.071Z,7.13
2023-01-13T19:34:51.307Z,4.93
2023-01-13T19:37:19.490Z,5.03
2023-01-13T19:39:46.814Z,5.63
2023-01-13T19:42:32.820Z,6.00
2023-01-13T19:45:18.797Z,3.63
2023-01-13T19:47:47.355Z,4.83
2023-01-13T19:50:14.719Z,4.90
2023-01-13T19:52:43.359Z,4.13
2023-01-13T19:55:12.538Z,2.70
2023-01-13T19:57:40.452Z,2.73
2023-01-13T20:00:12.047Z,6.17
2023-01-13T20:02:49.546Z,8.00
2023-01-13T20:05:21.459Z,2.33
2023-01-13T20:07:50.446Z,6.00
2023-01-13T20:10:19.568Z,7.57
2023-01-13T20:12:46.733Z,6.47
2023-01-13T20:15:13.952Z,6.03
2023-01-13T20:17:41.744Z,6.53
2023-01-13T20:20:10.739Z,6.83
2023-01-13T20:22:41.489Z,7.60
2023-01-13T20:25:09.511Z,4.73
2023-01-13T20:27:36.714Z,5.03
2023-01-13T20:30:05.800Z,9.03
2023-01-13T20:32:33.043Z,6.70
2023-01-13T20:35:00.184Z,10.67
2023-01-13T20:37:27.577Z,9.73
2023-01-13T20:39:57.464Z,8.37
2023-01-13T20:42:30.765Z,8.67
2023-01-13T20:44:59.437Z,7.17
2023-01-13T20:47:27.548Z,5.60
2023-01-13T20:49:54.798Z,10.07
2023-01-13T20:52:21.911Z,9.03
2023-01-13T20:54:49.054Z,10.73
2023-01-13T20:57:16.209Z,10.53
2023-01-13T20:59:43.413Z,8.03
2023-01-13T21:02:14.154Z,7.17
2023-01-13T21:04:41.634Z,6.83
2023-01-13T21:07:09.220Z,6.70
2023-01-13T21:09:36.745Z,10.87
2023-01-13T21:12:23.072Z,6.10
2023-01-13T21:15:08.608Z,6.60
2023-01-13T21:17:54.604Z,7.67
2023-01-13T21:20:21.852Z,6.80
2023-01-13T21:22:49.492Z,7.20
2023-01-13T21:25:18.700Z,8.53
2023-01-13T21:27:45.836Z,8.60
2023-01-13T21:30:15.146Z,8.97
2023-01-13T21:32:44.214Z,6.20
2023-01-13T21:35:12.194Z,9.90
2023-01-13T21:37:40.953Z,5.63
2023-01-13T21:40:11.436Z,7.40
2023-01-13T21:42:57.282Z,5.97
2023-01-13T21:45:43.351Z,8.77
2023-01-13T21:48:10.564Z,7.27
2023-01-13T21:50:40.705Z,5.03
2023-01-13T21:53:08.385Z,7.20
2023-01-13T21:55:36.926Z,7.80
2023-01-13T21:58:14.512Z,5.53
2023-01-13T22:00:43.933Z,7.00
2023-01-13T22:03:12.720Z,9.17
2023-01-13T22:05:40.435Z,4.93
2023-01-13T22:08:07.698Z,8.77
2023-01-13T22:10:35.589Z,4.30
2023-01-13T22:13:24.030Z,9.03
2023-01-13T22:15:51.283Z,5.57
2023-01-13T22:18:18.545Z,8.50
2023-01-13T22:20:46.293Z,8.17
2023-01-13T22:23:13.683Z,5.87
2023-01-13T22:25:40.870Z,5.97
2023-01-13T22:28:09.414Z,6.80
2023-01-13T22:30:36.831Z,3.80
2023-01-13T22:33:04.113Z,6.93
2023-01-13T22:35:31.286Z,3.60
2023-01-13T22:37:58.921Z,4.53
2023-01-13T22:40:26.095Z,4.30
2023-01-13T22:42:53.216Z,6.87
2023-01-13T22:45:20.406Z,6.00
2023-01-13T22:47:48.079Z,9.93
2023-01-13T22:50:17.634Z,2.73
2023-01-13T22:52:44.701Z,6.80
2023-01-13T22:55:11.805Z,5.40
2023-01-13T22:57:47.178Z,8.40
2023-01-13T23:00:19.050Z,8.07
2023-01-13T23:02:46.655Z,7.03
2023-01-13T23:05:14.064Z,13.33
2023-01-13T23:07:41.423Z,11.87
2023-01-13T23:10:09.290Z,11.93
2023-01-13T23:12:36.486Z,7.03
2023-01-13T23:15:04.210Z,8.90
2023-01-13T23:17:31.486Z,6.30
2023-01-13T23:19:58.526Z,7.87
2023-01-13T23:22:25.644Z,7.07
2023-01-13T23:24:52.739Z,7.87
2023-01-13T23:27:19.874Z,10.17
2023-01-13T23:29:46.953Z,8.40
2023-01-13T23:32:14.121Z,8.70
2023-01-13T23:34:41.185Z,7.40
2023-01-13T23:37:08.298Z,6.37
2023-01-13T23:39:35.373Z,10.03
2023-01-13T23:42:02.572Z,11.63
2023-01-13T23:44:29.716Z,6.67
2023-01-13T23:46:56.895Z,8.70
2023-01-13T23:49:24.193Z,11.10
2023-01-13T23:51:51.922Z,8.97
2023-01-13T23:54:19.339Z,6.33
2023-01-13T23:56:46.442Z,9.33
2023-01-13T23:59:13.501Z,5.97
